Time;durP1;ratioP1;P1;durP2;ratioP2;P2;SDS_P1;SDS_P2;PMS_P1;PMS_P2;Temp;Humidity;BMP_temperature;BMP_pressure;BME280_temperature;BME280_humidity;BME280_pressure;Samples;Min_cycle;Max_cycle;Signal;HPM_P1;HPM_P2
2023/06/07 00:01:59;;;;;;;0.28;0.13;;;;;;;11.45;48.96;102124.19;5054088;28;20060;-75
2023/06/07 00:04:26;;;;;;;1.65;0.10;;;;;;;11.41;49.30;102122.47;5053309;28;20124;-76
2023/06/07 00:07:00;;;;;;;0.15;0.10;;;;;;;11.35;49.46;102119.81;5052468;28;20123;-76
2023/06/07 00:09:28;;;;;;;0.38;0.10;;;;;;;11.35;49.38;102127.66;5061794;28;20147;-79
2023/06/07 00:11:55;;;;;;;1.27;0.10;;;;;;;11.32;49.38;102138.13;5051911;28;20053;-75
2023/06/07 00:14:24;;;;;;;0.30;0.10;;;;;;;11.29;49.49;102138.13;5059360;28;20044;-75
2023/06/07 00:16:53;;;;;;;0.47;0.15;;;;;;;11.26;49.79;102143.38;5051631;28;20053;-75
2023/06/07 00:19:21;;;;;;;0.45;0.10;;;;;;;11.20;50.20;102136.38;5055682;28;20094;-75
2023/06/07 00:21:49;;;;;;;4.57;0.95;;;;;;;11.22;49.96;102141.63;5051527;28;20083;-76
2023/06/07 00:24:16;;;;;;;0.10;0.10;;;;;;;11.19;50.39;102141.63;5057460;28;20128;-76
2023/06/07 00:26:44;;;;;;;0.68;0.20;;;;;;;11.10;50.12;102121.56;5052617;28;20048;-77
2023/06/07 00:29:11;;;;;;;0.75;0.10;;;;;;;11.17;50.73;102136.38;5056563;28;20048;-75
2023/06/07 00:31:40;;;;;;;1.35;0.10;;;;;;;11.08;50.87;102132.91;5054855;28;20416;-75
2023/06/07 00:34:07;;;;;;;0.98;0.10;;;;;;;11.14;50.58;102148.59;5059194;28;20127;-76
2023/06/07 00:36:34;;;;;;;2.05;0.10;;;;;;;11.12;51.27;102147.72;5055381;28;20125;-75
2023/06/07 00:39:03;;;;;;;0.65;0.10;;;;;;;11.12;51.01;102152.94;5056641;28;20045;-75
2023/06/07 00:41:30;;;;;;;1.17;0.10;;;;;;;11.10;51.24;102155.56;5057675;28;20463;-75
2023/06/07 00:43:57;;;;;;;0.45;0.10;;;;;;;10.93;51.30;102138.94;5057415;28;20064;-76
2023/06/07 00:46:28;;;;;;;0.22;0.10;;;;;;;11.08;51.59;102169.50;5055176;28;20045;-76
2023/06/07 00:48:57;;;;;;;1.23;0.10;;;;;;;11.06;51.41;102163.41;5054924;28;20045;-75
2023/06/07 00:51:25;;;;;;;1.23;0.13;;;;;;;10.94;51.26;102154.66;5057540;28;20051;-76
2023/06/07 00:53:54;;;;;;;0.30;0.10;;;;;;;11.01;52.08;102166.88;5055451;28;20976;-75
2023/06/07 00:56:21;;;;;;;3.20;0.10;;;;;;;11.00;52.00;102161.63;5054591;28;20052;-75
2023/06/07 00:58:48;;;;;;;0.30;0.10;;;;;;;10.98;51.46;102165.97;5060935;28;20044;-76
2023/06/07 01:01:17;;;;;;;1.58;0.52;;;;;;;10.89;51.76;102145.94;5051394;28;20048;-75
2023/06/07 01:03:45;;;;;;;0.13;0.10;;;;;;;10.96;51.79;102155.53;5054479;28;20041;-75
2023/06/07 01:06:13;;;;;;;0.15;0.10;;;;;;;10.85;51.93;102141.56;5060207;28;20049;-75
2023/06/07 01:08:41;;;;;;;2.55;0.10;;;;;;;10.86;51.68;102148.53;5051782;28;20102;-76
2023/06/07 01:11:10;;;;;;;1.55;0.25;;;;;;;10.90;51.99;102166.00;5056425;28;20055;-75
2023/06/07 01:13:39;;;;;;;1.25;0.32;;;;;;;10.80;51.85;102146.78;5056126;28;20036;-77
2023/06/07 01:16:07;;;;;;;0.40;0.17;;;;;;;10.87;52.26;102159.84;5051912;28;20127;-75
2023/06/07 01:18:35;;;;;;;1.52;0.10;;;;;;;10.82;52.05;102162.47;5056852;28;20045;-75
2023/06/07 01:21:05;;;;;;;1.55;0.10;;;;;;;10.79;52.56;102160.72;5058498;28;20052;-76
2023/06/07 01:23:36;;;;;;;0.20;0.10;;;;;;;10.79;52.20;102168.56;5056063;28;20053;-75
2023/06/07 01:26:04;;;;;;;1.10;0.20;;;;;;;10.76;52.58;102163.34;5055822;28;20048;-76
2023/06/07 01:28:34;;;;;;;0.85;0.10;;;;;;;10.73;52.75;102165.03;5048798;28;20508;-75
2023/06/07 01:31:03;;;;;;;0.55;0.10;;;;;;;10.73;52.79;102175.50;5056725;28;20037;-75
2023/06/07 01:33:31;;;;;;;0.50;0.13;;;;;;;10.72;53.13;102177.25;5058293;28;20059;-75
2023/06/07 01:35:59;;;;;;;0.40;0.25;;;;;;;10.65;52.82;102165.03;5059864;28;20045;-74
2023/06/07 01:38:28;;;;;;;1.20;0.10;;;;;;;10.70;52.98;102178.09;5056959;28;20048;-75
2023/06/07 01:40:58;;;;;;;0.17;0.10;;;;;;;10.64;53.55;102167.63;5054735;28;20059;-76
2023/06/07 01:43:26;;;;;;;1.48;0.20;;;;;;;10.61;53.48;102159.78;5053102;28;20078;-75
2023/06/07 01:45:54;;;;;;;0.73;0.13;;;;;;;10.68;53.65;102174.63;5048451;28;20052;-76
2023/06/07 01:48:21;;;;;;;0.30;0.20;;;;;;;10.58;53.31;102168.47;5051862;28;20044;-76
2023/06/07 01:50:49;;;;;;;0.28;0.17;;;;;;;10.66;53.76;102173.75;5052396;28;20052;-75
2023/06/07 01:53:16;;;;;;;0.30;0.13;;;;;;;10.61;53.81;102173.72;5051074;28;20503;-74
2023/06/07 01:55:46;;;;;;;0.73;0.10;;;;;;;10.63;53.95;102176.34;5044959;28;20044;-75
2023/06/07 01:58:25;;;;;;;1.70;0.20;;;;;;;10.61;53.61;102172.84;5049762;28;20049;-75
2023/06/07 02:01:01;;;;;;;0.43;0.10;;;;;;;10.56;53.84;102171.09;5053724;28;20052;-75
2023/06/07 02:03:33;;;;;;;0.40;0.10;;;;;;;10.60;53.90;102178.94;5056577;28;20041;-75
2023/06/07 02:06:04;;;;;;;3.90;0.20;;;;;;;10.53;53.98;102165.88;5047177;28;20056;-75
2023/06/07 02:08:35;;;;;;;0.17;0.13;;;;;;;10.55;54.31;102177.19;5054246;28;20128;-75
2023/06/07 02:11:02;;;;;;;0.45;0.10;;;;;;;10.52;54.37;102168.47;5047309;28;20057;-76
2023/06/07 02:13:34;;;;;;;0.80;0.20;;;;;;;10.46;54.70;102164.09;5049804;28;20052;-74
2023/06/07 02:16:04;;;;;;;0.30;0.20;;;;;;;10.51;54.60;102172.81;5058329;28;20053;-75
2023/06/07 02:18:32;;;;;;;0.35;0.20;;;;;;;10.51;54.44;102183.28;5054225;28;20049;-75
2023/06/07 02:21:00;;;;;;;1.85;0.10;;;;;;;10.50;54.68;102185.84;5055259;28;20044;-75
2023/06/07 02:23:26;;;;;;;0.25;0.10;;;;;;;10.36;54.76;102157.09;5056358;28;20126;-74
2023/06/07 02:25:53;;;;;;;0.30;0.10;;;;;;;10.37;55.25;102164.06;5051818;28;20128;-75
2023/06/07 02:28:20;;;;;;;0.52;0.10;;;;;;;10.35;55.13;102165.78;5047601;28;20488;-75
2023/06/07 02:30:51;;;;;;;1.85;0.15;;;;;;;10.44;55.42;102184.09;5047456;28;20064;-76
2023/06/07 02:33:21;;;;;;;2.05;0.10;;;;;;;10.26;55.37;102156.13;5056446;28;20049;-75
2023/06/07 02:35:48;;;;;;;1.75;0.10;;;;;;;10.41;55.18;102186.69;5045295;28;20504;-76
2023/06/07 02:38:15;;;;;;;0.20;0.15;;;;;;;10.41;55.73;102186.69;5052724;28;20125;-76
2023/06/07 02:40:42;;;;;;;0.60;0.13;;;;;;;10.25;55.92;102156.13;5051426;28;20777;-75
2023/06/07 02:43:09;;;;;;;0.13;0.10;;;;;;;10.40;55.66;102190.19;5051099;28;20057;-75
2023/06/07 02:45:36;;;;;;;0.43;0.10;;;;;;;10.37;55.83;102184.94;5047019;28;20789;-76
2023/06/07 02:48:06;;;;;;;0.30;0.10;;;;;;;10.31;55.75;102177.09;5048979;28;20056;-75
2023/06/07 02:50:33;;;;;;;0.95;0.20;;;;;;;10.35;55.97;102181.44;5054864;28;20646;-75
2023/06/07 02:53:01;;;;;;;0.55;0.47;;;;;;;10.40;56.25;102208.47;5044705;28;20053;-75
2023/06/07 02:55:28;;;;;;;1.40;0.10;;;;;;;10.39;56.14;102204.13;5047860;28;20071;-76
2023/06/07 02:57:55;;;;;;;0.10;0.10;;;;;;;10.39;56.36;102201.50;5054349;28;20170;-78
2023/06/07 03:00:23;;;;;;;1.25;0.20;;;;;;;10.40;56.31;102197.16;5056032;28;20135;-78
2023/06/07 03:02:50;;;;;;;0.30;0.20;;;;;;;10.41;56.77;102202.38;5048827;28;20052;-78
2023/06/07 03:05:19;;;;;;;3.20;0.10;;;;;;;10.42;56.66;102204.13;5046614;28;20155;-77
2023/06/07 03:07:46;;;;;;;0.45;0.10;;;;;;;10.42;56.94;102206.75;5058282;28;20127;-78
2023/06/07 03:10:13;;;;;;;1.48;0.10;;;;;;;10.44;56.68;102202.38;5054046;28;20511;-78
2023/06/07 03:12:40;;;;;;;2.15;0.20;;;;;;;10.44;57.18;102202.38;5049981;28;20045;-77
2023/06/07 03:15:09;;;;;;;4.32;0.10;;;;;;;10.29;57.52;102181.41;5051773;28;20127;-77
2023/06/07 03:17:37;;;;;;;0.28;0.10;;;;;;;10.49;57.65;102210.25;5062753;28;20036;-77
2023/06/07 03:20:06;;;;;;;0.30;0.13;;;;;;;10.51;57.10;102208.53;5054693;28;20053;-79
2023/06/07 03:22:36;;;;;;;0.63;0.10;;;;;;;10.53;57.31;102210.28;5056685;28;20043;-78
2023/06/07 03:25:03;;;;;;;0.38;0.10;;;;;;;10.54;57.23;102214.63;5054842;28;20420;-78
2023/06/07 03:27:32;;;;;;;0.30;0.13;;;;;;;10.61;57.42;102219.88;5054189;28;20052;-76
2023/06/07 03:29:59;;;;;;;0.20;0.10;;;;;;;10.65;57.47;102221.66;5059209;28;20777;-78
2023/06/07 03:32:26;;;;;;;0.38;0.20;;;;;;;10.69;57.42;102223.41;5059394;28;20066;-78
2023/06/07 03:34:53;;;;;;;0.40;0.30;;;;;;;10.73;57.91;102230.38;5057688;28;20121;-77
2023/06/07 03:37:21;;;;;;;0.30;0.10;;;;;;;10.75;57.55;102223.44;5058963;28;20076;-77
2023/06/07 03:39:49;;;;;;;0.22;0.10;;;;;;;10.84;57.59;102225.19;5058816;28;20056;-77
2023/06/07 03:42:16;;;;;;;0.30;0.10;;;;;;;10.88;57.00;102230.47;5056859;28;20045;-77
2023/06/07 03:44:43;;;;;;;0.10;0.00;;;;;;;10.93;56.99;102222.63;5061205;28;20048;-78
2023/06/07 03:47:10;;;;;;;1.30;0.20;;;;;;;10.96;57.12;102223.53;5059580;28;20155;-78
2023/06/07 03:49:37;;;;;;;0.70;0.20;;;;;;;11.09;56.57;102228.78;5056112;28;20125;-78
2023/06/07 03:52:05;;;;;;;0.77;0.20;;;;;;;11.07;56.71;102214.81;5061074;28;20089;-77
2023/06/07 03:54:32;;;;;;;0.85;0.20;;;;;;;11.21;56.79;102223.56;5060935;28;20051;-77
2023/06/07 03:57:00;;;;;;;0.98;0.20;;;;;;;11.32;56.98;102236.66;5054978;28;20052;-77
2023/06/07 03:59:27;;;;;;;1.40;0.17;;;;;;;11.40;56.45;102235.81;5053896;28;20730;-78
2023/06/07 04:01:55;;;;;;;0.10;0.10;;;;;;;11.41;56.06;102221.88;5051311;28;20489;-78
2023/06/07 04:04:27;;;;;;;0.20;0.10;;;;;;;11.56;56.11;102230.63;5061199;28;20091;-79
2023/06/07 04:06:54;;;;;;;0.10;0.10;;;;;;;11.63;55.84;102227.13;5072316;28;20045;-77
2023/06/07 04:09:21;;;;;;;0.30;0.10;;;;;;;11.72;56.00;102221.88;5051618;28;20051;-78
2023/06/07 04:11:48;;;;;;;0.40;0.10;;;;;;;11.84;55.80;102237.59;5064758;28;20049;-78
2023/06/07 04:14:17;;;;;;;1.67;0.00;;;;;;;11.92;55.77;102228.03;5056746;28;20041;-78
2023/06/07 04:16:44;;;;;;;1.70;0.10;;;;;;;11.96;55.32;102226.28;5057542;28;20052;-78
2023/06/07 04:19:11;;;;;;;0.30;0.10;;;;;;;12.11;55.23;102225.38;5055621;28;20520;-78
2023/06/07 04:21:38;;;;;;;0.20;0.20;;;;;;;12.20;55.16;102230.59;5049933;28;20055;-78
2023/06/07 04:24:06;;;;;;;0.10;0.10;;;;;;;12.18;55.16;102211.41;5053933;28;20041;-78
2023/06/07 04:26:33;;;;;;;0.60;0.10;;;;;;;12.42;54.69;102238.41;5054646;28;20140;-78
2023/06/07 04:29:00;;;;;;;0.20;0.10;;;;;;;12.53;53.36;102237.50;5062916;28;20055;-78
2023/06/07 04:31:33;;;;;;;0.93;0.10;;;;;;;12.67;53.64;102226.97;5053603;28;20083;-79
2023/06/07 04:34:01;;;;;;;0.40;0.20;;;;;;;12.64;53.28;102194.66;5051725;28;20052;-79
2023/06/07 04:36:29;;;;;;;1.38;0.13;;;;;;;12.97;53.13;102231.19;5052148;28;20048;-79
2023/06/07 04:38:56;;;;;;;0.32;0.10;;;;;;;12.99;52.29;102208.44;5052428;28;20705;-79
2023/06/07 04:41:25;;;;;;;0.55;0.10;;;;;;;13.22;52.49;102234.56;5050368;28;20083;-77
2023/06/07 04:43:53;;;;;;;0.85;0.20;;;;;;;13.29;52.12;102222.31;5056786;28;20110;-78
2023/06/07 04:46:20;;;;;;;1.75;0.20;;;;;;;13.48;51.35;102228.28;5052381;28;20045;-79
2023/06/07 04:48:48;;;;;;;1.00;0.15;;;;;;;13.63;51.05;102222.94;5059668;28;20134;-78
2023/06/07 04:51:20;;;;;;;1.08;0.20;;;;;;;13.66;50.85;102217.66;5055787;28;20042;-78
2023/06/07 04:53:47;;;;;;;0.40;0.10;;;;;;;13.88;49.50;102225.34;5050992;28;20128;-77
2023/06/07 04:56:14;;;;;;;0.70;0.10;;;;;;;14.05;49.25;102226.06;5057422;28;20132;-78
2023/06/07 04:58:41;;;;;;;2.30;0.17;;;;;;;14.20;48.66;102234.66;5055652;28;20135;-79
2023/06/07 05:01:10;;;;;;;0.40;0.10;;;;;;;14.34;48.35;102235.38;5053624;28;20056;-78
2023/06/07 05:03:40;;;;;;;0.70;0.10;;;;;;;14.52;47.59;102231.75;5054250;28;20558;-79
2023/06/07 05:06:08;;;;;;;1.65;0.20;;;;;;;14.68;47.09;102233.28;5055441;28;20098;-78
2023/06/07 05:08:35;;;;;;;2.83;0.10;;;;;;;14.84;46.42;102239.22;5050332;28;20045;-78
2023/06/07 05:11:02;;;;;;;0.98;0.10;;;;;;;14.95;46.32;102232.06;5046681;28;20060;-79
2023/06/07 05:13:30;;;;;;;2.17;0.10;;;;;;;15.13;45.70;102235.34;5054127;28;20548;-79
2023/06/07 05:15:57;;;;;;;1.90;0.13;;;;;;;15.14;45.27;102208.09;5056320;28;20060;-79
2023/06/07 05:18:24;;;;;;;0.88;0.20;;;;;;;15.42;44.62;102237.53;5061714;28;20044;-80
2023/06/07 05:20:51;;;;;;;0.55;0.10;;;;;;;15.53;44.29;102235.59;5056250;28;20059;-78
2023/06/07 05:23:20;;;;;;;0.73;0.17;;;;;;;15.68;44.51;102247.69;5054553;28;20064;-79
2023/06/07 05:25:47;;;;;;;0.20;0.10;;;;;;;15.76;43.93;102235.25;5055373;28;20044;-78
2023/06/07 05:28:18;;;;;;;0.10;0.10;;;;;;;15.92;43.50;102247.28;5054934;28;20508;-78
2023/06/07 05:30:45;;;;;;;2.20;0.10;;;;;;;16.05;43.37;102245.31;5050064;28;20406;-79
2023/06/07 05:33:12;;;;;;;0.40;0.20;;;;;;;16.17;42.85;102233.69;5061158;28;20045;-80
2023/06/07 05:35:44;;;;;;;1.65;0.10;;;;;;;16.28;42.28;102241.38;5061939;28;20541;-79
2023/06/07 05:38:11;;;;;;;0.30;0.10;;;;;;;16.38;42.27;102237.66;5054841;28;20049;-78
2023/06/07 05:40:40;;;;;;;0.20;0.13;;;;;;;16.41;41.95;102241.09;5053165;28;20044;-79
2023/06/07 05:43:07;;;;;;;3.88;0.17;;;;;;;16.50;41.47;102239.19;5053765;28;20140;-80
2023/06/07 05:45:35;;;;;;;0.10;0.10;;;;;;;16.57;41.11;102246.09;5061168;28;20072;-81
2023/06/07 05:48:01;;;;;;;0.30;0.10;;;;;;;16.59;41.10;102246.91;5050712;28;20053;-79
2023/06/07 05:50:29;;;;;;;0.30;0.10;;;;;;;16.61;41.09;102250.41;5059788;28;20119;-80
2023/06/07 05:52:57;;;;;;;0.85;0.10;;;;;;;16.63;40.83;102256.53;5058462;28;20073;-81
2023/06/07 05:55:26;;;;;;;0.20;0.10;;;;;;;16.62;40.23;102253.03;5049283;28;20048;-80
2023/06/07 05:57:57;;;;;;;3.03;0.20;;;;;;;16.60;40.32;102244.25;5054307;28;20067;-79
2023/06/07 06:00:25;;;;;;;0.50;0.10;;;;;;;16.51;40.45;102240.94;5057089;28;20428;-80
2023/06/07 06:02:52;;;;;;;0.52;0.10;;;;;;;16.53;40.26;102241.78;5051855;28;20983;-80
2023/06/07 06:05:21;;;;;;;0.10;0.10;;;;;;;16.49;40.79;102235.69;5050347;28;20056;-80
2023/06/07 06:07:48;;;;;;;1.15;0.10;;;;;;;16.54;40.54;102240.88;5059880;28;20087;-80
2023/06/07 06:10:15;;;;;;;0.10;0.10;;;;;;;16.55;40.79;102239.97;5052838;28;20044;-79
2023/06/07 06:12:42;;;;;;;0.20;0.10;;;;;;;16.63;40.99;102251.25;5055818;28;20044;-80
2023/06/07 06:15:11;;;;;;;1.58;0.10;;;;;;;16.67;40.77;102254.69;5056773;28;20059;-79
2023/06/07 06:17:38;;;;;;;0.82;0.10;;;;;;;16.64;40.75;102256.47;5046077;28;20056;-80
2023/06/07 06:20:07;;;;;;;1.27;0.10;;;;;;;16.66;40.86;102258.25;5053109;28;20059;-80
2023/06/07 06:22:34;;;;;;;1.08;0.10;;;;;;;16.70;41.09;102260.75;5063100;28;20102;-80
2023/06/07 06:25:02;;;;;;;0.10;0.10;;;;;;;16.69;41.30;102255.53;5049537;28;20124;-79
2023/06/07 06:27:29;;;;;;;0.20;0.10;;;;;;;16.75;41.10;102263.31;5061154;28;20045;-79
2023/06/07 06:29:56;;;;;;;0.30;0.10;;;;;;;16.79;41.22;102271.19;5053828;28;20123;-80
2023/06/07 06:32:25;;;;;;;0.30;0.10;;;;;;;16.81;41.03;102268.50;5055995;28;20045;-80
2023/06/07 06:34:51;;;;;;;0.00;0.00;;;;;;;16.76;41.09;102260.69;5053555;28;20049;-79
2023/06/07 06:37:18;;;;;;;0.22;0.00;;;;;;;16.79;41.35;102265.00;5050097;28;20567;-79
2023/06/07 06:39:47;;;;;;;0.10;0.10;;;;;;;16.81;41.34;102279.91;5045205;28;20053;-80
2023/06/07 06:42:14;;;;;;;0.50;0.20;;;;;;;16.81;41.17;102273.78;5045786;28;20511;-80
2023/06/07 06:44:44;;;;;;;0.13;0.00;;;;;;;16.90;41.38;102284.13;5050138;28;20129;-81
2023/06/07 06:47:11;;;;;;;0.00;0.00;;;;;;;16.89;41.55;102263.94;5050254;28;20083;-86
2023/06/07 06:49:40;;;;;;;0.45;0.20;;;;;;;17.05;41.52;102277.69;5049595;28;20045;-83
2023/06/07 06:52:07;;;;;;;0.10;0.10;;;;;;;17.13;41.22;102269.56;5057290;28;20045;-91
2023/06/07 06:54:35;;;;;;;0.15;0.10;;;;;;;17.23;41.66;102279.91;5051836;28;20095;-81
2023/06/07 06:57:01;;;;;;;0.22;0.10;;;;;;;17.34;41.07;102284.97;5051800;28;20900;-85
2023/06/07 06:59:29;;;;;;;0.10;0.00;;;;;;;17.34;41.16;102260.31;5057817;28;20132;-88
2023/06/07 07:01:59;;;;;;;0.10;0.10;;;;;;;17.55;41.34;102283.59;5057084;28;20053;-86
2023/06/07 07:04:31;;;;;;;0.10;0.00;;;;;;;17.55;40.79;102265.09;5053509;28;20076;-85
2023/06/07 07:06:59;;;;;;;0.20;0.10;;;;;;;17.76;40.65;102280.44;5058395;28;20083;-83
2023/06/07 07:09:26;;;;;;;0.25;0.10;;;;;;;17.74;40.55;102262.88;5058777;28;20499;-82
2023/06/07 07:11:54;;;;;;;0.10;0.00;;;;;;;18.01;39.96;102285.13;5063181;28;20129;-80
2023/06/07 07:14:21;;;;;;;0.10;0.00;;;;;;;18.14;40.01;102285.69;5029774;28;20102;-80
2023/06/07 07:16:48;;;;;;;0.20;0.10;;;;;;;18.16;39.94;102260.94;5060106;28;20041;-86
2023/06/07 07:19:19;;;;;;;0.80;0.00;;;;;;;18.30;39.78;102267.63;5064407;28;20127;-81
2023/06/07 07:21:46;;;;;;;0.00;0.00;;;;;;;18.54;39.60;102285.50;5046466;28;20053;-79
2023/06/07 07:24:15;;;;;;;0.32;0.10;;;;;;;18.69;39.48;102288.63;5046306;28;20051;-78
2023/06/07 07:26:42;;;;;;;0.10;0.10;;;;;;;18.75;38.92;102275.22;5051866;28;20049;-79
2023/06/07 07:29:09;;;;;;;0.22;0.10;;;;;;;18.93;38.98;102289.75;5047314;28;20544;-82
2023/06/07 07:31:36;;;;;;;0.22;0.10;;;;;;;18.95;38.59;102267.56;5048682;28;20460;-84
2023/06/07 07:34:04;;;;;;;0.08;0.08;;;;;;;19.05;38.59;102274.34;5064849;28;20045;-85
2023/06/07 07:36:33;;;;;;;0.32;0.10;;;;;;;19.24;38.79;102290.56;5061139;28;20460;-87
2023/06/07 07:39:04;;;;;;;0.15;0.03;;;;;;;19.34;38.63;102296.44;5046234;28;20073;-83
2023/06/07 07:41:33;;;;;;;0.15;0.05;;;;;;;19.47;38.48;102292.50;5051020;28;20071;-84
2023/06/07 07:43:59;;;;;;;0.20;0.10;;;;;;;19.47;37.58;102287.19;5050574;28;20136;-82
2023/06/07 07:46:26;;;;;;;0.30;0.05;;;;;;;19.62;37.97;102298.22;5055547;28;20408;-82
2023/06/07 07:48:53;;;;;;;0.00;0.00;;;;;;;19.68;37.48;102296.25;5055689;28;20499;-80
2023/06/07 07:51:21;;;;;;;0.10;0.00;;;;;;;19.74;37.31;102300.50;5060558;28;20041;-82
2023/06/07 07:53:48;;;;;;;0.10;0.08;;;;;;;19.80;37.49;102297.63;5050568;28;20052;-86
2023/06/07 07:56:15;;;;;;;0.10;0.10;;;;;;;19.64;36.85;102253.97;5058181;28;20049;-84
2023/06/07 07:58:46;;;;;;;0.60;0.00;;;;;;;19.89;36.85;102289.38;5060501;28;20132;-80
2023/06/07 08:01:15;;;;;;;0.10;0.08;;;;;;;19.93;37.15;102291.00;5052713;28;20079;-83
2023/06/07 08:03:42;;;;;;;0.20;0.10;;;;;;;19.98;37.15;102294.38;5057071;28;20052;-85
2023/06/07 08:06:09;;;;;;;0.22;0.10;;;;;;;19.97;36.78;102279.38;5053080;28;20042;-79
2023/06/07 08:08:36;;;;;;;1.00;0.10;;;;;;;20.05;36.70;102296.81;5077058;22;20065;-77
2023/06/07 08:11:03;;;;;;;0.45;0.05;;;;;;;20.05;36.63;102289.72;5023297;28;20041;-75
2023/06/07 08:13:32;;;;;;;0.30;0.10;;;;;;;20.06;36.79;102287.94;5028368;28;20045;-75
2023/06/07 08:16:00;;;;;;;0.10;0.10;;;;;;;20.13;36.30;102297.44;5034215;28;20100;-84
2023/06/07 08:18:27;;;;;;;0.38;0.03;;;;;;;20.08;36.23;102284.31;5100190;22;20061;-84
2023/06/07 08:20:54;;;;;;;0.00;0.00;;;;;;;20.18;36.33;102298.16;5525246;22;20547;-76
2023/06/07 08:23:21;;;;;;;0.05;0.00;;;;;;;20.20;36.46;102293.63;5065675;28;20062;-89
2023/06/07 08:25:48;;;;;;;0.10;0.10;;;;;;;20.23;36.38;102301.50;5065458;28;20048;-87
2023/06/07 08:28:16;;;;;;;0.05;0.05;;;;;;;20.22;36.11;102302.41;5060354;28;20053;-83
2023/06/07 08:30:43;;;;;;;0.10;0.03;;;;;;;20.21;36.15;102303.34;5061429;28;20045;-87
2023/06/07 08:33:12;;;;;;;1.10;0.10;;;;;;;20.23;36.35;102296.19;5063077;28;20826;-81
2023/06/07 08:35:39;;;;;;;0.75;0.10;;;;;;;20.28;36.05;102296.03;5060752;28;20118;-85
2023/06/07 08:38:07;;;;;;;1.27;0.10;;;;;;;20.23;35.97;102282.91;5058867;28;20041;-90
2023/06/07 08:40:36;;;;;;;0.20;0.10;;;;;;;20.32;36.31;102300.28;5063058;28;20053;-84
2023/06/07 08:43:03;;;;;;;0.00;0.00;;;;;;;20.36;36.10;102304.59;5060451;28;20122;-87
2023/06/07 08:45:30;;;;;;;0.65;0.10;;;;;;;20.36;36.45;102297.50;5063679;28;20047;-92
2023/06/07 08:47:58;;;;;;;0.47;0.03;;;;;;;20.41;36.36;102306.16;5060170;28;20432;-79
2023/06/07 08:50:28;;;;;;;0.00;0.00;;;;;;;20.41;36.26;102297.34;5057623;28;20044;-80
2023/06/07 08:52:55;;;;;;;0.10;0.00;;;;;;;20.45;36.28;102304.25;5061840;28;20052;-84
2023/06/07 08:55:25;;;;;;;0.98;0.10;;;;;;;20.47;36.56;102301.56;5058451;28;20057;-79
2023/06/07 08:57:55;;;;;;;0.10;0.10;;;;;;;20.51;36.72;102303.19;5062061;28;20056;-82
2023/06/07 09:00:23;;;;;;;2.92;0.10;;;;;;;20.44;36.36;102284.81;5062190;28;20098;-80
2023/06/07 09:02:52;;;;;;;0.10;0.10;;;;;;;20.48;36.09;102293.53;5058199;28;20071;-80
2023/06/07 09:05:19;;;;;;;1.10;0.10;;;;;;;20.55;36.15;102296.84;5062032;28;20052;-80
2023/06/07 09:07:48;;;;;;;3.10;0.10;;;;;;;20.55;36.11;102299.50;5062230;28;20055;-82
2023/06/07 09:10:17;;;;;;;0.40;0.10;;;;;;;20.57;35.85;102298.53;5056258;28;20044;-78
2023/06/07 09:12:45;;;;;;;0.20;0.10;;;;;;;20.54;35.82;102296.00;5060045;28;20223;-79
2023/06/07 09:15:18;;;;;;;0.10;0.10;;;;;;;20.48;35.92;102280.25;5061083;28;20969;-82
2023/06/07 09:17:52;;;;;;;1.25;0.03;;;;;;;20.58;35.49;102302.94;5056346;28;21364;-81
2023/06/07 09:20:20;;;;;;;0.10;0.10;;;;;;;20.59;35.52;102306.47;5057890;28;20065;-79
2023/06/07 09:22:59;;;;;;;1.23;0.00;;;;;;;20.57;35.96;102297.69;5054001;28;20056;-78
2023/06/07 09:25:27;;;;;;;0.10;0.05;;;;;;;20.59;35.74;102301.16;5060857;28;20056;-83
2023/06/07 09:27:54;;;;;;;1.30;0.00;;;;;;;20.49;35.42;102289.09;5063855;28;20444;-83
2023/06/07 09:30:22;;;;;;;1.50;0.00;;;;;;;20.56;35.63;102296.81;5061992;28;20044;-85
2023/06/07 09:32:49;;;;;;;1.20;0.00;;;;;;;20.56;35.30;102306.56;5060080;28;20052;-84
2023/06/07 09:35:18;;;;;;;0.10;0.10;;;;;;;20.56;34.98;102307.44;5057190;28;20495;-80
2023/06/07 09:37:47;;;;;;;0.20;0.00;;;;;;;20.54;35.05;102298.66;5065281;28;20064;-81
2023/06/07 09:40:16;;;;;;;0.57;0.10;;;;;;;20.52;35.20;102297.84;5060014;28;20049;-82
2023/06/07 09:42:44;;;;;;;0.10;0.00;;;;;;;20.51;35.88;102301.38;5060291;28;20095;-82
2023/06/07 09:45:13;;;;;;;1.17;0.05;;;;;;;20.52;36.15;102300.47;5058368;28;20437;-83
2023/06/07 09:47:42;;;;;;;0.10;0.00;;;;;;;20.52;36.11;102299.59;5055547;28;20053;-81
2023/06/07 09:50:11;;;;;;;0.20;0.05;;;;;;;20.53;36.13;102304.03;5060021;28;20102;-82
2023/06/07 09:52:38;;;;;;;0.20;0.10;;;;;;;20.55;36.21;102302.16;5064169;28;20059;-83
2023/06/07 09:55:07;;;;;;;0.30;0.05;;;;;;;20.56;36.50;102295.97;5060566;28;20052;-82
2023/06/07 09:57:38;;;;;;;1.40;0.10;;;;;;;20.58;36.18;102299.44;5064651;28;20049;-83
2023/06/07 10:00:14;;;;;;;1.77;0.10;;;;;;;20.59;36.53;102296.69;5061860;28;20085;-82
2023/06/07 10:02:42;;;;;;;0.85;0.00;;;;;;;20.63;36.96;102303.66;5058366;28;20040;-81
2023/06/07 10:05:12;;;;;;;0.20;0.00;;;;;;;20.53;36.74;102290.75;5062023;28;20083;-82
2023/06/07 10:07:43;;;;;;;1.75;0.10;;;;;;;20.65;36.28;102306.25;5061420;28;20052;-83
2023/06/07 10:10:12;;;;;;;0.00;0.00;;;;;;;20.64;36.22;102304.50;5062478;28;20045;-83
2023/06/07 10:12:42;;;;;;;0.20;0.00;;;;;;;20.52;36.44;102283.66;5059492;28;20052;-83
2023/06/07 10:15:12;;;;;;;0.08;0.00;;;;;;;20.60;36.35;102300.22;5066265;28;20080;-81
2023/06/07 10:17:49;;;;;;;0.20;0.08;;;;;;;20.59;36.19;102290.53;5055487;28;20045;-81
2023/06/07 10:20:25;;;;;;;0.52;0.10;;;;;;;20.53;36.34;102301.38;5059689;28;20117;-82
2023/06/07 10:22:57;;;;;;;0.10;0.00;;;;;;;20.51;36.45;102292.56;5059197;28;20105;-83
2023/06/07 10:25:30;;;;;;;0.30;0.00;;;;;;;20.39;36.20;102284.13;5063274;28;20112;-82
2023/06/07 10:28:12;;;;;;;0.05;0.00;;;;;;;20.33;36.19;102279.03;5059214;28;20079;-80
2023/06/07 10:30:45;;;;;;;0.00;0.00;;;;;;;20.33;36.41;102284.34;5060497;28;20051;-78
2023/06/07 10:33:13;;;;;;;0.20;0.00;;;;;;;20.33;36.59;102284.34;5061943;28;20127;-86
2023/06/07 10:35:41;;;;;;;1.75;0.00;;;;;;;20.30;36.60;102284.44;5063643;28;20484;-85
2023/06/07 10:38:11;;;;;;;0.22;0.00;;;;;;;20.27;36.22;102283.69;5061707;28;20076;-87
2023/06/07 10:40:38;;;;;;;0.10;0.10;;;;;;;20.28;36.06;102296.91;5065361;28;20109;-91
2023/06/07 10:43:07;;;;;;;0.10;0.00;;;;;;;20.28;35.96;102296.03;5060826;28;20053;-85
2023/06/07 10:45:34;;;;;;;0.45;0.00;;;;;;;20.27;35.87;102286.34;5059527;28;20049;-90
2023/06/07 10:48:34;;;;;;;1.58;0.00;;;;;;;20.20;36.11;102273.28;5061830;28;20052;-90
2023/06/07 10:51:01;;;;;;;0.00;0.00;;;;;;;20.26;36.53;102284.59;5058165;28;20099;-90
2023/06/07 10:53:50;;;;;;;0.55;0.00;;;;;;;20.29;36.16;102280.06;5060498;28;20526;-90
2023/06/07 10:56:30;;;;;;;0.22;0.00;;;;;;;20.30;36.13;102278.28;5063174;28;20123;-88
2023/06/07 10:59:22;;;;;;;1.02;0.00;;;;;;;20.30;36.00;102273.84;5062295;28;20057;-87
2023/06/07 11:01:52;;;;;;;1.52;0.10;;;;;;;20.29;35.98;102268.56;5059619;28;20122;-87
2023/06/07 11:04:50;;;;;;;0.00;0.00;;;;;;;20.31;35.88;102275.56;5059324;28;20136;-87
2023/06/07 11:07:18;;;;;;;1.45;0.00;;;;;;;20.23;36.04;102269.66;5060250;28;20508;-87
2023/06/07 11:09:45;;;;;;;0.45;0.10;;;;;;;20.27;35.92;102273.94;5057497;28;20052;-88
2023/06/07 11:12:57;;;;;;;0.10;0.10;;;;;;;20.27;36.17;102281.03;5057218;28;20106;-83
2023/06/07 11:15:30;;;;;;;0.10;0.08;;;;;;;20.24;35.64;102273.19;5061961;28;20052;-87
2023/06/07 11:17:58;;;;;;;0.10;0.10;;;;;;;20.19;35.42;102270.69;5060632;28;20056;-89
2023/06/07 11:20:49;;;;;;;0.20;0.10;;;;;;;20.18;35.23;102284.88;5057862;28;20059;-89
2023/06/07 11:23:21;;;;;;;0.10;0.00;;;;;;;20.15;35.24;102275.25;5059448;28;20509;-90
2023/06/07 11:25:49;;;;;;;0.68;0.05;;;;;;;20.14;35.61;102275.28;5064464;28;20055;-89
2023/06/07 11:28:17;;;;;;;0.10;0.05;;;;;;;20.14;35.21;102285.91;5060496;28;20525;-87
2023/06/07 11:30:45;;;;;;;3.40;0.10;;;;;;;20.16;34.93;102276.09;5061734;28;20136;-86
2023/06/07 11:33:15;;;;;;;0.00;0.00;;;;;;;20.04;34.88;102255.31;5067930;28;20041;-87